Karol W — 9HA3715 — position and weather

sailwx.info

Track history (hours):
 
Tides and Currents Weather Stations Pressure Air Temp Water Temp Dewpoint Dewpoint Depression Visibility Wind Speed Wind Dir Waves Ship Positions

Karol W

Last reported at 2017-Oct-16 12:16 UTC. Time now 2017-Nov-19 01:14 UTC.
Position S 05°13' E 011°31'.
Warning: this ship's position is 33 days out of date.

Length 54 m; draft 2.1 m.

Type: Ship. MMSI: 229915000.

Date/timePositionNaut miles runAvg speedWind from/ knotsBaromVisibWave heightAir tempDewpointWater temp
2017-Oct-16 12:16S 05°13' E 011°31'517.0
2017-Oct-16 12:00S 05°16' E 011°28'4 8.0
2017-Oct-16 11:28S 05°19' E 011°25'1 2.0
2017-Oct-16 11:00S 05°20' E 011°25'1 2.0
2017-Oct-16 10:30S 05°21' E 011°25'2 3.3
2017-Oct-16 10:00S 05°19' E 011°25'1 1.4
2017-Oct-16 09:26S 05°20' E 011°25'1 2.0
2017-Oct-16 09:00S 05°21' E 011°25'2 3.1
2017-Oct-16 08:30S 05°19' E 011°25'1 1.0
2017-Oct-16 07:57S 05°20' E 011°25'1 1.4
2017-Oct-16 07:30S 05°21' E 011°25'1 2.2
2017-Oct-16 06:52S 05°19' E 011°25'1 2.1
2017-Oct-16 06:22S 05°20' E 011°25'0 0.9
2017-Oct-16 05:59S 05°20' E 011°25'1 1.6
2017-Oct-16 05:30S 05°19' E 011°25'1 2.3
2017-Oct-16 04:59S 05°20' E 011°25'1 1.0
2017-Oct-16 04:29S 05°21' E 011°26'2 3.1
2017-Oct-16 04:00S 05°19' E 011°25'1 1.4
2017-Oct-16 03:30S 05°20' E 011°25'1 2.1
2017-Oct-16 03:00S 05°21' E 011°26'1 2.5
2017-Oct-16 02:29S 05°20' E 011°25'1 1.3
2017-Oct-16 01:40S 05°21' E 011°25'0 1.5
2017-Oct-16 01:29S 05°21' E 011°25'1 3.0
2017-Oct-16 01:00S 05°19' E 011°25'1 1.6
2017-Oct-16 00:28S 05°20' E 011°25'1 1.8
2017-Oct-16 00:00S 05°21' E 011°25'1 1.7
2017-Oct-15 23:30S 05°20' E 011°25'1 1.6
2017-Oct-15 22:59S 05°19' E 011°24'1 1.6
2017-Oct-15 22:30S 05°20' E 011°25'1 1.7
2017-Oct-15 22:00S 05°21' E 011°25'1 2.7
2017-Oct-15 21:30S 05°20' E 011°25'0 0.3
2017-Oct-15 21:00S 05°20' E 011°25'1 1.4
2017-Oct-15 20:30S 05°20' E 011°25'1 2.6
2017-Oct-15 20:00S 05°19' E 011°24'1 2.1
2017-Oct-15 19:30S 05°20' E 011°25'1 1.8
2017-Oct-15 19:00S 05°21' E 011°25'0 0.8
2017-Oct-15 18:30S 05°21' E 011°25'1 1.7
2017-Oct-15 17:59S 05°20' E 011°25'0 0.8
2017-Oct-15 17:30S 05°19' E 011°25'1 2.5
2017-Oct-15 16:58S 05°21' E 011°26'1 2.9
2017-Oct-15 16:30S 05°20' E 011°25'1 1.2
2017-Oct-15 16:00S 05°20' E 011°25'0 0.6
2017-Oct-15 15:30S 05°20' E 011°25'1 2.4
2017-Oct-15 15:00S 05°19' E 011°25'1 1.1
2017-Oct-15 14:00S 05°20' E 011°25'1 2.2
2017-Oct-15 13:30S 05°20' E 011°24'1 2.2
2017-Oct-15 12:59S 05°21' E 011°25'0 0.2
2017-Oct-15 12:30S 05°21' E 011°25'2 4.6
2017-Oct-15 12:00S 05°19' E 011°24'2 4.6
2017-Oct-15 11:30S 05°17' E 011°23'1 1.2
2017-Oct-15 11:00S 05°17' E 011°23'0 0.1
2017-Oct-15 10:30S 05°17' E 011°23'0 0.6
2017-Oct-15 10:00S 05°17' E 011°23'4 6.2
2017-Oct-15 09:17S 05°21' E 011°25'1 4.4
2017-Oct-15 09:00S 05°20' E 011°25'2 4.8
2017-Oct-15 08:30S 05°17' E 011°23'0 0.6
2017-Oct-15 08:00S 05°17' E 011°23'0 0.2
2017-Oct-15 07:29S 05°17' E 011°23'2 4.8
2017-Oct-15 06:58S 05°19' E 011°25'1 2.2
2017-Oct-15 06:23S 05°20' E 011°25'1 1.9
2017-Oct-15 05:59S 05°21' E 011°26'2 4.1
2017-Oct-15 05:30S 05°19' E 011°25'0 0.2
2017-Oct-15 05:00S 05°19' E 011°25'1 2.0
2017-Oct-15 04:29S 05°20' E 011°25'1 1.2
2017-Oct-15 03:59S 05°21' E 011°25'0 0.6
2017-Oct-15 03:29S 05°20' E 011°25'1 2.1
2017-Oct-15 02:59S 05°19' E 011°25'1 2.1
2017-Oct-15 02:28S 05°20' E 011°26'0 0.3
2017-Oct-15 01:58S 05°20' E 011°25'1 2.7
2017-Oct-15 01:30S 05°19' E 011°25'1 1.5
2017-Oct-15 00:50S 05°20' E 011°25'1 1.9
2017-Oct-15 00:28S 05°21' E 011°25'2 3.4
2017-Oct-15 00:00S 05°20' E 011°24'1 1.3
2017-Oct-14 23:27S 05°20' E 011°24'0 0.8
2017-Oct-14 23:00S 05°21' E 011°25'1 1.8
2017-Oct-14 22:18S 05°19' E 011°25'1 2.5
2017-Oct-14 21:55S 05°20' E 011°25'0 0.1
2017-Oct-14 18:54S 05°21' E 011°25'2 4.0
2017-Oct-14 18:29S 05°19' E 011°24'2 1.3
2017-Oct-14 17:11S 05°20' E 011°26'1 2.8
2017-Oct-14 16:55S 05°20' E 011°25'1 2.9
2017-Oct-14 16:29S 05°19' E 011°24'1 1.4
2017-Oct-14 15:59S 05°20' E 011°24'1 1.9
2017-Oct-14 15:27S 05°20' E 011°25'1 0.9
2017-Oct-14 14:22S 05°20' E 011°24'0 0.7
2017-Oct-14 14:00S 05°20' E 011°25'1 1.9
2017-Oct-14 13:28S 05°21' E 011°26'0 1.1
2017-Oct-14 13:00S 05°21' E 011°25'1 1.9
2017-Oct-14 12:29S 05°20' E 011°24'1 1.6
2017-Oct-14 11:47S 05°21' E 011°25'1 1.5
2017-Oct-14 11:26S 05°21' E 011°25'2 3.8
2017-Oct-14 11:00S 05°20' E 011°24'1 1.5
2017-Oct-14 10:30S 05°19' E 011°24'1 1.4
2017-Oct-14 09:58S 05°20' E 011°24'0 1.0
2017-Oct-14 09:30S 05°20' E 011°24'1 1.7
2017-Oct-14 09:00S 05°20' E 011°25'0 0.3
2017-Oct-14 07:52S 05°20' E 011°25'1 3.1
2017-Oct-14 07:30S 05°20' E 011°24'2 1.5
2017-Oct-14 06:15S 05°21' E 011°26'0 0.3
2017-Oct-14 06:00S 05°21' E 011°25'2 2.3
2017-Oct-14 05:20S 05°20' E 011°24'1 1.7
2017-Oct-14 04:38S 05°21' E 011°25'0 2.5
2017-Oct-14 04:29S 05°21' E 011°25'1 0.6
2017-Oct-14 03:26S 05°21' E 011°26'0 0.9
2017-Oct-14 03:00S 05°21' E 011°25'1 1.2
2017-Oct-14 02:30S 05°20' E 011°25'1 1.9
2017-Oct-14 01:55S 05°21' E 011°25'1 1.8
2017-Oct-14 01:30S 05°20' E 011°25'0 0.1
2017-Oct-14 00:20S 05°20' E 011°25'1 1.7
2017-Oct-13 23:59S 05°21' E 011°25'1 1.1
2017-Oct-13 23:25S 05°20' E 011°25'1 1.7
2017-Oct-13 22:59S 05°20' E 011°24'1 1.7
2017-Oct-13 22:30S 05°20' E 011°25'1 1.0
2017-Oct-13 21:59S 05°21' E 011°25'1 2.0
2017-Oct-13 21:29S 05°20' E 011°25'1 1.6
2017-Oct-13 20:52S 05°21' E 011°25'1 1.5
2017-Oct-13 20:29S 05°20' E 011°25'1 1.6
2017-Oct-13 19:59S 05°20' E 011°25'1 1.6
2017-Oct-13 19:15S 05°21' E 011°25'0 1.5
2017-Oct-13 19:00S 05°21' E 011°25'1 2.4
2017-Oct-13 18:24S 05°20' E 011°25'1 1.9
2017-Oct-13 17:58S 05°20' E 011°25'0 0.5
2017-Oct-13 17:27S 05°20' E 011°25'0 0.5
2017-Oct-13 16:36S 05°20' E 011°25'1 2.3
2017-Oct-13 16:14S 05°21' E 011°25'0 0.6
2017-Oct-13 15:57S 05°21' E 011°25'2 3.7
2017-Oct-13 15:30S 05°20' E 011°24'1 1.7
2017-Oct-13 14:53S 05°21' E 011°25'1 1.7
2017-Oct-13 14:29S 05°21' E 011°25'1 1.4
2017-Oct-13 14:00S 05°20' E 011°25'0 0.1
2017-Oct-13 13:30S 05°20' E 011°25'0 0.6
2017-Oct-13 12:56S 05°20' E 011°25'0 0.7
2017-Oct-13 12:30S 05°20' E 011°25'1 2.4
2017-Oct-13 11:58S 05°20' E 011°24'1 2.4
2017-Oct-13 11:30S 05°21' E 011°25'0 0.4
2017-Oct-13 10:59S 05°21' E 011°25'1 2.9
2017-Oct-13 10:29S 05°19' E 011°24'1 1.9
2017-Oct-13 09:59S 05°20' E 011°24'1 1.1
2017-Oct-13 09:30S 05°21' E 011°25'2 3.5
2017-Oct-13 09:00S 05°19' E 011°26'1 1.9
2017-Oct-13 08:29S 05°20' E 011°26'1 2.6
2017-Oct-13 08:00S 05°19' E 011°25'0 0.2
2017-Oct-13 07:30S 05°19' E 011°25'1 2.0
2017-Oct-13 06:59S 05°20' E 011°25'0 0.9
2017-Oct-13 06:30S 05°21' E 011°25'2 4.2
2017-Oct-13 06:00S 05°19' E 011°25'1 1.7
2017-Oct-13 05:23S 05°20' E 011°25'1 2.1
2017-Oct-13 05:00S 05°20' E 011°25'0 0.8
2017-Oct-13 04:30S 05°21' E 011°25'1 2.6
2017-Oct-13 04:00S 05°20' E 011°25'0 0.3
2017-Oct-13 03:30S 05°20' E 011°25'1 2.2
2017-Oct-13 03:00S 05°21' E 011°25'0 0.1
2017-Oct-13 02:30S 05°20' E 011°25'1 2.8
2017-Oct-13 02:00S 05°19' E 011°25'1 1.7
2017-Oct-13 01:30S 05°20' E 011°25'1 2.2
2017-Oct-13 01:00S 05°21' E 011°25'1 2.7
2017-Oct-13 00:30S 05°20' E 011°25'0 0.2
2017-Oct-12 23:59S 05°20' E 011°25'1 2.3
2017-Oct-12 23:29S 05°21' E 011°25'1 1.7
2017-Oct-12 23:00S 05°20' E 011°25'1 2.0
2017-Oct-12 22:30S 05°19' E 011°24'1 2.6
2017-Oct-12 22:00S 05°20' E 011°25'0 0.4
2017-Oct-12 21:30S 05°20' E 011°25'1 1.9
2017-Oct-12 20:59S 05°20' E 011°25'1 2.2
2017-Oct-12 20:30S 05°21' E 011°25'2 3.1
2017-Oct-12 20:00S 05°19' E 011°24'1 1.4
2017-Oct-12 19:30S 05°20' E 011°25'1 1.9
2017-Oct-12 19:00S 05°21' E 011°25'1 1.4
2017-Oct-12 18:30S 05°20' E 011°25'0 0.3
2017-Oct-12 18:00S 05°20' E 011°25'1 1.5
2017-Oct-12 17:30S 05°21' E 011°25'1 1.9
2017-Oct-12 17:00S 05°20' E 011°25'1 1.5
2017-Oct-12 16:29S 05°20' E 011°24'1 2.0
2017-Oct-12 15:57S 05°20' E 011°25'1 0.2
2017-Oct-12 13:38S 05°21' E 011°25'1 2.1
2017-Oct-12 13:22S 05°20' E 011°25'1 1.3
2017-Oct-12 12:48S 05°20' E 011°24'1 2.1
2017-Oct-12 12:26S 05°21' E 011°25'0 0.5
2017-Oct-12 11:55S 05°20' E 011°25'1 2.8
2017-Oct-12 11:28S 05°19' E 011°25'1 1.8
2017-Oct-12 11:00S 05°20' E 011°25'1 2.0
2017-Oct-12 10:30S 05°21' E 011°25'1 1.6
2017-Oct-12 09:59S 05°20' E 011°25'1 2.3
2017-Oct-12 09:29S 05°19' E 011°24'1 2.0
2017-Oct-12 09:00S 05°20' E 011°25'1 2.0
2017-Oct-12 08:29S 05°21' E 011°25'2 3.4
2017-Oct-12 07:59S 05°19' E 011°25'0 0.6
2017-Oct-12 07:30S 05°20' E 011°25'1 2.0
2017-Oct-12 06:59S 05°20' E 011°25'0 0.3
2017-Oct-12 06:30S 05°21' E 011°25'2 3.2
2017-Oct-12 06:00S 05°19' E 011°25'1 1.9
2017-Oct-12 05:29S 05°20' E 011°25'1 1.8
2017-Oct-12 05:00S 05°21' E 011°25'1 2.8
2017-Oct-12 04:30S 05°20' E 011°25'0 0.5
2017-Oct-12 03:59S 05°20' E 011°25'1 1.9
2017-Oct-12 03:30S 05°21' E 011°25'0 0.7
2017-Oct-12 03:00S 05°20' E 011°25'1 2.9
2017-Oct-12 02:30S 05°19' E 011°25'1 1.4
2017-Oct-12 01:57S 05°20' E 011°25'1 1.9
2017-Oct-12 01:30S 05°21' E 011°25'0 0.5
2017-Oct-12 01:00S 05°20' E 011°25'1 2.2
2017-Oct-12 00:26S 05°19' E 011°25'1 2.2
2017-Oct-11 23:59S 05°20' E 011°25'1 1.7
2017-Oct-11 23:28S 05°21' E 011°25'2 3.8
2017-Oct-11 23:00S 05°19' E 011°25'1 1.2
2017-Oct-11 22:30S 05°20' E 011°25'1 2.2
2017-Oct-11 22:00S 05°21' E 011°25'2 3.1
2017-Oct-11 21:30S 05°19' E 011°25'0 0.5
2017-Oct-11 21:00S 05°20' E 011°25'1 2.2
2017-Oct-11 20:28S 05°21' E 011°25'2 3.6
2017-Oct-11 20:00S 05°19' E 011°25'1 1.6
2017-Oct-11 19:30S 05°20' E 011°25'1 2.3
2017-Oct-11 19:00S 05°21' E 011°25'2 3.5
2017-Oct-11 18:30S 05°19' E 011°25'1 1.4
2017-Oct-11 18:00S 05°20' E 011°25'1 2.3
2017-Oct-11 17:30S 05°21' E 011°26'2 3.5
2017-Oct-11 17:00S 05°20' E 011°25'1 0.1
2017-Oct-11 00:00S 05°20' E 011°25'0 1.0
2017-Oct-10 23:30S 05°20' E 011°25'0 0.9
2017-Oct-10 23:01S 05°20' E 011°25'0 0.5
2017-Oct-10 22:29S 05°19' E 011°25'1 2.5
2017-Oct-10 22:00S 05°21' E 011°25'0 1.0
2017-Oct-10 21:30S 05°20' E 011°25'1 2.5
2017-Oct-10 21:00S 05°19' E 011°24'1 2.5
2017-Oct-10 20:30S 05°20' E 011°25'1 2.3
2017-Oct-10 20:00S 05°19' E 011°24'1 1.8
2017-Oct-10 19:30S 05°20' E 011°25'1 2.5
2017-Oct-10 19:00S 05°21' E 011°25'1 1.6
2017-Oct-10 18:29S 05°20' E 011°25'0 0.9
2017-Oct-10 18:00S 05°21' E 011°25'2 3.6
2017-Oct-10 17:31S 05°19' E 011°24'1 1.3
2017-Oct-10 17:00S 05°20' E 011°25'1 2.1
2017-Oct-10 16:30S 05°21' E 011°25'1 2.3
2017-Oct-10 16:00S 05°21' E 011°26'2 3.3
2017-Oct-10 15:30S 05°23' E 011°27'0 0.2
2017-Oct-10 14:51S 05°23' E 011°27'0 0.0
2017-Oct-10 13:55S 05°23' E 011°27'0 0.2
2017-Oct-10 13:30S 05°23' E 011°27'0 0.2
2017-Oct-10 13:01S 05°23' E 011°27'1 2.0
2017-Oct-10 12:30S 05°22' E 011°26'2 3.8
2017-Oct-10 12:00S 05°21' E 011°25'2 3.4
2017-Oct-10 11:30S 05°19' E 011°25'3 5.2
2017-Oct-10 11:00S 05°17' E 011°23'0 0.1
2017-Oct-10 10:30S 05°17' E 011°23'0 1.0
2017-Oct-10 10:00S 05°17' E 011°24'0 0.6
2017-Oct-10 09:30S 05°17' E 011°23'0 0.2
2017-Oct-10 08:59S 05°17' E 011°23'1 1.3
2017-Oct-10 08:30S 05°17' E 011°23'0 0.6
2017-Oct-10 08:00S 05°17' E 011°23'0 0.0
2017-Oct-10 07:30S 05°17' E 011°23'0 0.0
2017-Oct-10 07:00S 05°17' E 011°23'0 0.1
2017-Oct-10 06:30S 05°17' E 011°23'0 0.5
2017-Oct-10 06:00S 05°17' E 011°23'3 5.2
2017-Oct-10 05:30S 05°19' E 011°25'1 2.0
2017-Oct-10 04:58S 05°20' E 011°25'0 0.5
2017-Oct-10 04:30S 05°20' E 011°25'0 0.8
2017-Oct-10 04:00S 05°20' E 011°25'1 1.8
2017-Oct-10 03:30S 05°20' E 011°25'1 0.5
2017-Oct-10 02:17S 05°21' E 011°26'1 1.9
2017-Oct-10 02:00S 05°21' E 011°25'1 2.1
2017-Oct-10 01:29S 05°19' E 011°25'1 1.4
2017-Oct-10 00:34S 05°21' E 011°26'0 2.9
2017-Oct-10 00:28S 05°20' E 011°25'1 2.9
2017-Oct-09 23:59S 05°19' E 011°25'2 1.6
2017-Oct-09 22:55S 05°21' E 011°25'1 1.4
2017-Oct-09 22:29S 05°20' E 011°25'0 0.7
2017-Oct-09 21:47S 05°20' E 011°25'1 1.9
2017-Oct-09 21:28S 05°21' E 011°25'2 3.8
2017-Oct-09 20:59S 05°19' E 011°24'1 1.9
2017-Oct-09 20:26S 05°20' E 011°25'1 1.9
2017-Oct-09 20:00S 05°21' E 011°25'1 2.2
2017-Oct-09 19:30S 05°20' E 011°25'0 0.6
2017-Oct-09 19:00S 05°20' E 011°25'1 0.9
2017-Oct-09 18:18S 05°20' E 011°25'1 3.7
2017-Oct-09 18:00S 05°19' E 011°25'3 6.4
2017-Oct-09 17:30S 05°17' E 011°23'0 0.7
2017-Oct-09 17:00S 05°17' E 011°23'0 0.2
2017-Oct-09 16:30S 05°17' E 011°23'0 0.4
2017-Oct-09 16:00S 05°17' E 011°23'714.1
2017-Oct-09 15:29S 05°13' E 011°29'2 0.2
2017-Oct-09 04:44S 05°15' E 011°29'417.3
2017-Oct-09 04:30S 05°17' E 011°26'3 5.6
2017-Oct-09 03:58S 05°20' E 011°25'0 0.5
2017-Oct-09 03:29S 05°20' E 011°25'0 0.7
2017-Oct-09 03:00S 05°20' E 011°25'1 1.9
2017-Oct-09 02:30S 05°21' E 011°25'1 1.5
2017-Oct-09 02:00S 05°20' E 011°25'1 1.3
2017-Oct-09 01:24S 05°19' E 011°25'1 1.4
2017-Oct-09 01:00S 05°20' E 011°25'1 1.5
2017-Oct-09 00:29S 05°21' E 011°25'1 1.5
2017-Oct-08 23:32S 05°20' E 011°24'0 2.3
2017-Oct-08 23:25S 05°19' E 011°24'1 1.6
2017-Oct-08 22:50S 05°20' E 011°25'1 1.6
2017-Oct-08 22:30S 05°21' E 011°25'1 2.2
2017-Oct-08 21:59S 05°20' E 011°25'1 1.7
2017-Oct-08 21:29S 05°20' E 011°25'1 1.4
2017-Oct-08 20:58S 05°20' E 011°25'1 1.7
2017-Oct-08 20:30S 05°20' E 011°25'1 2.2
2017-Oct-08 20:00S 05°19' E 011°24'1 1.8
2017-Oct-08 19:26S 05°20' E 011°25'1 1.8
2017-Oct-08 18:59S 05°21' E 011°25'1 2.3
2017-Oct-08 18:22S 05°20' E 011°25'1 1.5
2017-Oct-08 17:52S 05°20' E 011°25'0 0.4
2017-Oct-08 17:23S 05°20' E 011°25'1 3.1
2017-Oct-08 17:00S 05°19' E 011°25'0 1.0
2017-Oct-08 16:30S 05°20' E 011°25'4 0.8
2017-Oct-08 11:46S 05°23' E 011°27'310.4
2017-Oct-08 11:28S 05°21' E 011°25'1 2.6
2017-Oct-08 11:00S 05°20' E 011°24'1 1.7
2017-Oct-08 10:23S 05°20' E 011°25'1 1.4
2017-Oct-08 09:52S 05°21' E 011°25'2 4.1
2017-Oct-08 09:29S 05°20' E 011°25'1 1.1
2017-Oct-08 08:19S 05°21' E 011°25'2 4.8
2017-Oct-08 07:59S 05°19' E 011°25'2 4.8
2017-Oct-08 07:30S 05°17' E 011°24'1 1.4
2017-Oct-08 07:00S 05°17' E 011°23'0 0.2
2017-Oct-08 06:30S 05°17' E 011°23'0 0.7
2017-Oct-08 06:00S 05°17' E 011°23'3 6.1
2017-Oct-08 05:30S 05°19' E 011°25'1 2.1
2017-Oct-08 04:57S 05°20' E 011°25'1 1.6
2017-Oct-08 04:30S 05°21' E 011°26'1 1.8
2017-Oct-08 03:59S 05°20' E 011°25'0 0.6
2017-Oct-08 03:19S 05°20' E 011°25'1 1.7
2017-Oct-08 02:56S 05°21' E 011°26'2 3.1
2017-Oct-08 02:20S 05°19' E 011°25'2 1.5
2017-Oct-08 01:10S 05°21' E 011°26'1 2.0
2017-Oct-08 00:49S 05°20' E 011°25'1 2.9
2017-Oct-08 00:30S 05°20' E 011°24'0 0.1
2017-Oct-07 23:56S 05°20' E 011°24'1 1.7
2017-Oct-07 23:30S 05°20' E 011°25'1 1.7
2017-Oct-07 22:59S 05°21' E 011°25'3 3.1
2017-Oct-07 21:52S 05°23' E 011°28'0 0.3
2017-Oct-07 20:39S 05°23' E 011°28'2 5.7
2017-Oct-07 20:17S 05°22' E 011°26'310.4
2017-Oct-07 20:00S 05°19' E 011°24'0 0.7
2017-Oct-07 19:30S 05°20' E 011°25'1 2.0
2017-Oct-07 18:59S 05°20' E 011°25'0 0.5
2017-Oct-07 18:17S 05°20' E 011°25'1 3.4
2017-Oct-07 18:00S 05°19' E 011°24'1 2.0
2017-Oct-07 17:24S 05°20' E 011°25'2 5.1
2017-Oct-07 17:00S 05°19' E 011°27'4 0.5
2017-Oct-07 08:09S 05°16' E 011°29'216.4
2017-Oct-07 08:00S 05°18' E 011°28'5 6.3
2017-Oct-07 07:14S 05°23' E 011°27'0 0.0
2017-Oct-07 06:51S 05°23' E 011°27'0 0.0
2017-Oct-07 06:30S 05°23' E 011°27'0 0.2
2017-Oct-07 05:59S 05°23' E 011°27'1 2.2
2017-Oct-07 05:29S 05°22' E 011°26'2 3.5
2017-Oct-07 04:59S 05°20' E 011°25'1 1.6
2017-Oct-07 04:30S 05°21' E 011°25'1 1.2
2017-Oct-07 04:00S 05°20' E 011°25'1 1.5
2017-Oct-07 03:30S 05°20' E 011°25'0 0.7
2017-Oct-07 03:00S 05°20' E 011°25'1 2.2
2017-Oct-07 02:30S 05°21' E 011°25'0 0.1
2017-Oct-07 02:00S 05°21' E 011°25'1 1.1
2017-Oct-07 01:30S 05°20' E 011°25'0 1.0
2017-Oct-07 01:00S 05°20' E 011°25'0 0.1
2017-Oct-07 00:29S 05°20' E 011°25'0 0.8
2017-Oct-06 23:59S 05°20' E 011°25'0 0.9
2017-Oct-06 23:30S 05°20' E 011°25'0 0.8
2017-Oct-06 22:58S 05°19' E 011°24'1 1.6
2017-Oct-06 22:30S 05°20' E 011°25'1 2.0
2017-Oct-06 21:58S 05°21' E 011°25'2 3.5
2017-Oct-06 21:29S 05°20' E 011°24'0 0.4
2017-Oct-06 20:58S 05°20' E 011°24'1 2.0
2017-Oct-06 20:30S 05°20' E 011°25'1 2.9
2017-Oct-06 20:00S 05°19' E 011°24'1 2.1
2017-Oct-06 19:30S 05°20' E 011°25'1 1.8
2017-Oct-06 18:58S 05°21' E 011°25'1 2.0
2017-Oct-06 18:30S 05°20' E 011°25'0 0.3
2017-Oct-06 18:00S 05°20' E 011°25'4 6.5
2017-Oct-06 17:27S 05°17' E 011°23'0 1.0
2017-Oct-06 17:00S 05°17' E 011°23'0 0.1
2017-Oct-06 16:30S 05°17' E 011°23'0 0.2
2017-Oct-06 16:00S 05°17' E 011°23'0 0.9
2017-Oct-06 15:30S 05°17' E 011°23'4 7.5
2017-Oct-06 15:00S 05°20' E 011°24'0 0.3
2017-Oct-06 14:30S 05°20' E 011°24'1 1.1
2017-Oct-06 14:00S 05°21' E 011°24'1 2.3
2017-Oct-06 13:30S 05°20' E 011°24'1 2.0
2017-Oct-06 12:47S 05°21' E 011°25'0 0.2
2017-Oct-06 12:17S 05°21' E 011°25'  
Track history (hours):
 
Tides and Currents Weather Stations Pressure Air Temp Water Temp Dewpoint Dewpoint Depression Visibility Wind Speed Wind Dir Waves Ship Positions

Karol W

Last reported at 2017-Oct-16 12:16 UTC. Time now 2017-Nov-19 01:14 UTC.
Position S 05°13' E 011°31'.
Warning: this ship's position is 33 days out of date.

Length 54 m; draft 2.1 m.

Type: Ship. MMSI: 229915000.

Date/timePositionNaut miles runAvg speedWind from/ knotsBaromVisibWave heightAir tempDewpointWater temp
2017-Oct-16 12:16S 05°13' E 011°31'517.0
2017-Oct-16 12:00S 05°16' E 011°28'4 8.0
2017-Oct-16 11:28S 05°19' E 011°25'1 2.0
2017-Oct-16 11:00S 05°20' E 011°25'1 2.0
2017-Oct-16 10:30S 05°21' E 011°25'2 3.3
2017-Oct-16 10:00S 05°19' E 011°25'1 1.4
2017-Oct-16 09:26S 05°20' E 011°25'1 2.0
2017-Oct-16 09:00S 05°21' E 011°25'2 3.1
2017-Oct-16 08:30S 05°19' E 011°25'1 1.0
2017-Oct-16 07:57S 05°20' E 011°25'1 1.4
2017-Oct-16 07:30S 05°21' E 011°25'1 2.2
2017-Oct-16 06:52S 05°19' E 011°25'1 2.1
2017-Oct-16 06:22S 05°20' E 011°25'0 0.9
2017-Oct-16 05:59S 05°20' E 011°25'1 1.6
2017-Oct-16 05:30S 05°19' E 011°25'1 2.3
2017-Oct-16 04:59S 05°20' E 011°25'1 1.0
2017-Oct-16 04:29S 05°21' E 011°26'2 3.1
2017-Oct-16 04:00S 05°19' E 011°25'1 1.4
2017-Oct-16 03:30S 05°20' E 011°25'1 2.1
2017-Oct-16 03:00S 05°21' E 011°26'1 2.5
2017-Oct-16 02:29S 05°20' E 011°25'1 1.3
2017-Oct-16 01:40S 05°21' E 011°25'0 1.5
2017-Oct-16 01:29S 05°21' E 011°25'1 3.0
2017-Oct-16 01:00S 05°19' E 011°25'1 1.6
2017-Oct-16 00:28S 05°20' E 011°25'1 1.8
2017-Oct-16 00:00S 05°21' E 011°25'1 1.7
2017-Oct-15 23:30S 05°20' E 011°25'1 1.6
2017-Oct-15 22:59S 05°19' E 011°24'1 1.6
2017-Oct-15 22:30S 05°20' E 011°25'1 1.7
2017-Oct-15 22:00S 05°21' E 011°25'1 2.7
2017-Oct-15 21:30S 05°20' E 011°25'0 0.3
2017-Oct-15 21:00S 05°20' E 011°25'1 1.4
2017-Oct-15 20:30S 05°20' E 011°25'1 2.6
2017-Oct-15 20:00S 05°19' E 011°24'1 2.1
2017-Oct-15 19:30S 05°20' E 011°25'1 1.8
2017-Oct-15 19:00S 05°21' E 011°25'0 0.8
2017-Oct-15 18:30S 05°21' E 011°25'1 1.7
2017-Oct-15 17:59S 05°20' E 011°25'0 0.8
2017-Oct-15 17:30S 05°19' E 011°25'1 2.5
2017-Oct-15 16:58S 05°21' E 011°26'1 2.9
2017-Oct-15 16:30S 05°20' E 011°25'1 1.2
2017-Oct-15 16:00S 05°20' E 011°25'0 0.6
2017-Oct-15 15:30S 05°20' E 011°25'1 2.4
2017-Oct-15 15:00S 05°19' E 011°25'1 1.1
2017-Oct-15 14:00S 05°20' E 011°25'1 2.2
2017-Oct-15 13:30S 05°20' E 011°24'1 2.2
2017-Oct-15 12:59S 05°21' E 011°25'0 0.2
2017-Oct-15 12:30S 05°21' E 011°25'2 4.6
2017-Oct-15 12:00S 05°19' E 011°24'2 4.6
2017-Oct-15 11:30S 05°17' E 011°23'1 1.2
2017-Oct-15 11:00S 05°17' E 011°23'0 0.1
2017-Oct-15 10:30S 05°17' E 011°23'0 0.6
2017-Oct-15 10:00S 05°17' E 011°23'4 6.2
2017-Oct-15 09:17S 05°21' E 011°25'1 4.4
2017-Oct-15 09:00S 05°20' E 011°25'2 4.8
2017-Oct-15 08:30S 05°17' E 011°23'0 0.6
2017-Oct-15 08:00S 05°17' E 011°23'0 0.2
2017-Oct-15 07:29S 05°17' E 011°23'2 4.8
2017-Oct-15 06:58S 05°19' E 011°25'1 2.2
2017-Oct-15 06:23S 05°20' E 011°25'1 1.9
2017-Oct-15 05:59S 05°21' E 011°26'2 4.1
2017-Oct-15 05:30S 05°19' E 011°25'0 0.2
2017-Oct-15 05:00S 05°19' E 011°25'1 2.0
2017-Oct-15 04:29S 05°20' E 011°25'1 1.2
2017-Oct-15 03:59S 05°21' E 011°25'0 0.6
2017-Oct-15 03:29S 05°20' E 011°25'1 2.1
2017-Oct-15 02:59S 05°19' E 011°25'1 2.1
2017-Oct-15 02:28S 05°20' E 011°26'0 0.3
2017-Oct-15 01:58S 05°20' E 011°25'1 2.7
2017-Oct-15 01:30S 05°19' E 011°25'1 1.5
2017-Oct-15 00:50S 05°20' E 011°25'1 1.9
2017-Oct-15 00:28S 05°21' E 011°25'2 3.4
2017-Oct-15 00:00S 05°20' E 011°24'1 1.3
2017-Oct-14 23:27S 05°20' E 011°24'0 0.8
2017-Oct-14 23:00S 05°21' E 011°25'1 1.8
2017-Oct-14 22:18S 05°19' E 011°25'1 2.5
2017-Oct-14 21:55S 05°20' E 011°25'0 0.1
2017-Oct-14 18:54S 05°21' E 011°25'2 4.0
2017-Oct-14 18:29S 05°19' E 011°24'2 1.3
2017-Oct-14 17:11S 05°20' E 011°26'1 2.8
2017-Oct-14 16:55S 05°20' E 011°25'1 2.9
2017-Oct-14 16:29S 05°19' E 011°24'1 1.4
2017-Oct-14 15:59S 05°20' E 011°24'1 1.9
2017-Oct-14 15:27S 05°20' E 011°25'1 0.9
2017-Oct-14 14:22S 05°20' E 011°24'0 0.7
2017-Oct-14 14:00S 05°20' E 011°25'1 1.9
2017-Oct-14 13:28S 05°21' E 011°26'0 1.1
2017-Oct-14 13:00S 05°21' E 011°25'1 1.9
2017-Oct-14 12:29S 05°20' E 011°24'1 1.6
2017-Oct-14 11:47S 05°21' E 011°25'1 1.5
2017-Oct-14 11:26S 05°21' E 011°25'2 3.8
2017-Oct-14 11:00S 05°20' E 011°24'1 1.5
2017-Oct-14 10:30S 05°19' E 011°24'1 1.4
2017-Oct-14 09:58S 05°20' E 011°24'0 1.0
2017-Oct-14 09:30S 05°20' E 011°24'1 1.7
2017-Oct-14 09:00S 05°20' E 011°25'0 0.3
2017-Oct-14 07:52S 05°20' E 011°25'1 3.1
2017-Oct-14 07:30S 05°20' E 011°24'2 1.5
2017-Oct-14 06:15S 05°21' E 011°26'0 0.3
2017-Oct-14 06:00S 05°21' E 011°25'2 2.3
2017-Oct-14 05:20S 05°20' E 011°24'1 1.7
2017-Oct-14 04:38S 05°21' E 011°25'0 2.5
2017-Oct-14 04:29S 05°21' E 011°25'1 0.6
2017-Oct-14 03:26S 05°21' E 011°26'0 0.9
2017-Oct-14 03:00S 05°21' E 011°25'1 1.2
2017-Oct-14 02:30S 05°20' E 011°25'1 1.9
2017-Oct-14 01:55S 05°21' E 011°25'1 1.8
2017-Oct-14 01:30S 05°20' E 011°25'0 0.1
2017-Oct-14 00:20S 05°20' E 011°25'1 1.7
2017-Oct-13 23:59S 05°21' E 011°25'1 1.1
2017-Oct-13 23:25S 05°20' E 011°25'1 1.7
2017-Oct-13 22:59S 05°20' E 011°24'1 1.7
2017-Oct-13 22:30S 05°20' E 011°25'1 1.0
2017-Oct-13 21:59S 05°21' E 011°25'1 2.0
2017-Oct-13 21:29S 05°20' E 011°25'1 1.6
2017-Oct-13 20:52S 05°21' E 011°25'1 1.5
2017-Oct-13 20:29S 05°20' E 011°25'1 1.6
2017-Oct-13 19:59S 05°20' E 011°25'1 1.6
2017-Oct-13 19:15S 05°21' E 011°25'0 1.5
2017-Oct-13 19:00S 05°21' E 011°25'1 2.4
2017-Oct-13 18:24S 05°20' E 011°25'1 1.9
2017-Oct-13 17:58S 05°20' E 011°25'0 0.5
2017-Oct-13 17:27S 05°20' E 011°25'0 0.5
2017-Oct-13 16:36S 05°20' E 011°25'1 2.3
2017-Oct-13 16:14S 05°21' E 011°25'0 0.6
2017-Oct-13 15:57S 05°21' E 011°25'2 3.7
2017-Oct-13 15:30S 05°20' E 011°24'1 1.7
2017-Oct-13 14:53S 05°21' E 011°25'1 1.7
2017-Oct-13 14:29S 05°21' E 011°25'1 1.4
2017-Oct-13 14:00S 05°20' E 011°25'0 0.1
2017-Oct-13 13:30S 05°20' E 011°25'0 0.6
2017-Oct-13 12:56S 05°20' E 011°25'0 0.7
2017-Oct-13 12:30S 05°20' E 011°25'1 2.4
2017-Oct-13 11:58S 05°20' E 011°24'1 2.4
2017-Oct-13 11:30S 05°21' E 011°25'0 0.4
2017-Oct-13 10:59S 05°21' E 011°25'1 2.9
2017-Oct-13 10:29S 05°19' E 011°24'1 1.9
2017-Oct-13 09:59S 05°20' E 011°24'1 1.1
2017-Oct-13 09:30S 05°21' E 011°25'2 3.5
2017-Oct-13 09:00S 05°19' E 011°26'1 1.9
2017-Oct-13 08:29S 05°20' E 011°26'1 2.6
2017-Oct-13 08:00S 05°19' E 011°25'0 0.2
2017-Oct-13 07:30S 05°19' E 011°25'1 2.0
2017-Oct-13 06:59S 05°20' E 011°25'0 0.9
2017-Oct-13 06:30S 05°21' E 011°25'2 4.2
2017-Oct-13 06:00S 05°19' E 011°25'1 1.7
2017-Oct-13 05:23S 05°20' E 011°25'1 2.1
2017-Oct-13 05:00S 05°20' E 011°25'0 0.8
2017-Oct-13 04:30S 05°21' E 011°25'1 2.6
2017-Oct-13 04:00S 05°20' E 011°25'0 0.3
2017-Oct-13 03:30S 05°20' E 011°25'1 2.2
2017-Oct-13 03:00S 05°21' E 011°25'0 0.1
2017-Oct-13 02:30S 05°20' E 011°25'1 2.8
2017-Oct-13 02:00S 05°19' E 011°25'1 1.7
2017-Oct-13 01:30S 05°20' E 011°25'1 2.2
2017-Oct-13 01:00S 05°21' E 011°25'1 2.7
2017-Oct-13 00:30S 05°20' E 011°25'0 0.2
2017-Oct-12 23:59S 05°20' E 011°25'1 2.3
2017-Oct-12 23:29S 05°21' E 011°25'1 1.7
2017-Oct-12 23:00S 05°20' E 011°25'1 2.0
2017-Oct-12 22:30S 05°19' E 011°24'1 2.6
2017-Oct-12 22:00S 05°20' E 011°25'0 0.4
2017-Oct-12 21:30S 05°20' E 011°25'1 1.9
2017-Oct-12 20:59S 05°20' E 011°25'1 2.2
2017-Oct-12 20:30S 05°21' E 011°25'2 3.1
2017-Oct-12 20:00S 05°19' E 011°24'1 1.4
2017-Oct-12 19:30S 05°20' E 011°25'1 1.9
2017-Oct-12 19:00S 05°21' E 011°25'1 1.4
2017-Oct-12 18:30S 05°20' E 011°25'0 0.3
2017-Oct-12 18:00S 05°20' E 011°25'1 1.5
2017-Oct-12 17:30S 05°21' E 011°25'1 1.9
2017-Oct-12 17:00S 05°20' E 011°25'1 1.5
2017-Oct-12 16:29S 05°20' E 011°24'1 2.0
2017-Oct-12 15:57S 05°20' E 011°25'1 0.2
2017-Oct-12 13:38S 05°21' E 011°25'1 2.1
2017-Oct-12 13:22S 05°20' E 011°25'1 1.3
2017-Oct-12 12:48S 05°20' E 011°24'1 2.1
2017-Oct-12 12:26S 05°21' E 011°25'0 0.5
2017-Oct-12 11:55S 05°20' E 011°25'1 2.8
2017-Oct-12 11:28S 05°19' E 011°25'1 1.8
2017-Oct-12 11:00S 05°20' E 011°25'1 2.0
2017-Oct-12 10:30S 05°21' E 011°25'1 1.6
2017-Oct-12 09:59S 05°20' E 011°25'1 2.3
2017-Oct-12 09:29S 05°19' E 011°24'1 2.0
2017-Oct-12 09:00S 05°20' E 011°25'1 2.0
2017-Oct-12 08:29S 05°21' E 011°25'2 3.4
2017-Oct-12 07:59S 05°19' E 011°25'0 0.6
2017-Oct-12 07:30S 05°20' E 011°25'1 2.0
2017-Oct-12 06:59S 05°20' E 011°25'0 0.3
2017-Oct-12 06:30S 05°21' E 011°25'2 3.2
2017-Oct-12 06:00S 05°19' E 011°25'1 1.9
2017-Oct-12 05:29S 05°20' E 011°25'1 1.8
2017-Oct-12 05:00S 05°21' E 011°25'1 2.8
2017-Oct-12 04:30S 05°20' E 011°25'0 0.5
2017-Oct-12 03:59S 05°20' E 011°25'1 1.9
2017-Oct-12 03:30S 05°21' E 011°25'0 0.7
2017-Oct-12 03:00S 05°20' E 011°25'1 2.9
2017-Oct-12 02:30S 05°19' E 011°25'1 1.4
2017-Oct-12 01:57S 05°20' E 011°25'1 1.9
2017-Oct-12 01:30S 05°21' E 011°25'0 0.5
2017-Oct-12 01:00S 05°20' E 011°25'1 2.2
2017-Oct-12 00:26S 05°19' E 011°25'1 2.2
2017-Oct-11 23:59S 05°20' E 011°25'1 1.7
2017-Oct-11 23:28S 05°21' E 011°25'2 3.8
2017-Oct-11 23:00S 05°19' E 011°25'1 1.2
2017-Oct-11 22:30S 05°20' E 011°25'1 2.2
2017-Oct-11 22:00S 05°21' E 011°25'2 3.1
2017-Oct-11 21:30S 05°19' E 011°25'0 0.5
2017-Oct-11 21:00S 05°20' E 011°25'1 2.2
2017-Oct-11 20:28S 05°21' E 011°25'2 3.6
2017-Oct-11 20:00S 05°19' E 011°25'1 1.6
2017-Oct-11 19:30S 05°20' E 011°25'1 2.3
2017-Oct-11 19:00S 05°21' E 011°25'2 3.5
2017-Oct-11 18:30S 05°19' E 011°25'1 1.4
2017-Oct-11 18:00S 05°20' E 011°25'1 2.3
2017-Oct-11 17:30S 05°21' E 011°26'2 3.5
2017-Oct-11 17:00S 05°20' E 011°25'1 0.1
2017-Oct-11 00:00S 05°20' E 011°25'0 1.0
2017-Oct-10 23:30S 05°20' E 011°25'0 0.9
2017-Oct-10 23:01S 05°20' E 011°25'0 0.5
2017-Oct-10 22:29S 05°19' E 011°25'1 2.5
2017-Oct-10 22:00S 05°21' E 011°25'0 1.0
2017-Oct-10 21:30S 05°20' E 011°25'1 2.5
2017-Oct-10 21:00S 05°19' E 011°24'1 2.5
2017-Oct-10 20:30S 05°20' E 011°25'1 2.3
2017-Oct-10 20:00S 05°19' E 011°24'1 1.8
2017-Oct-10 19:30S 05°20' E 011°25'1 2.5
2017-Oct-10 19:00S 05°21' E 011°25'1 1.6
2017-Oct-10 18:29S 05°20' E 011°25'0 0.9
2017-Oct-10 18:00S 05°21' E 011°25'2 3.6
2017-Oct-10 17:31S 05°19' E 011°24'1 1.3
2017-Oct-10 17:00S 05°20' E 011°25'1 2.1
2017-Oct-10 16:30S 05°21' E 011°25'1 2.3
2017-Oct-10 16:00S 05°21' E 011°26'2 3.3
2017-Oct-10 15:30S 05°23' E 011°27'0 0.2
2017-Oct-10 14:51S 05°23' E 011°27'0 0.0
2017-Oct-10 13:55S 05°23' E 011°27'0 0.2
2017-Oct-10 13:30S 05°23' E 011°27'0 0.2
2017-Oct-10 13:01S 05°23' E 011°27'1 2.0
2017-Oct-10 12:30S 05°22' E 011°26'2 3.8
2017-Oct-10 12:00S 05°21' E 011°25'2 3.4
2017-Oct-10 11:30S 05°19' E 011°25'3 5.2
2017-Oct-10 11:00S 05°17' E 011°23'0 0.1
2017-Oct-10 10:30S 05°17' E 011°23'0 1.0
2017-Oct-10 10:00S 05°17' E 011°24'0 0.6
2017-Oct-10 09:30S 05°17' E 011°23'0 0.2
2017-Oct-10 08:59S 05°17' E 011°23'1 1.3
2017-Oct-10 08:30S 05°17' E 011°23'0 0.6
2017-Oct-10 08:00S 05°17' E 011°23'0 0.0
2017-Oct-10 07:30S 05°17' E 011°23'0 0.0
2017-Oct-10 07:00S 05°17' E 011°23'0 0.1
2017-Oct-10 06:30S 05°17' E 011°23'0 0.5
2017-Oct-10 06:00S 05°17' E 011°23'3 5.2
2017-Oct-10 05:30S 05°19' E 011°25'1 2.0
2017-Oct-10 04:58S 05°20' E 011°25'0 0.5
2017-Oct-10 04:30S 05°20' E 011°25'0 0.8
2017-Oct-10 04:00S 05°20' E 011°25'1 1.8
2017-Oct-10 03:30S 05°20' E 011°25'1 0.5
2017-Oct-10 02:17S 05°21' E 011°26'1 1.9
2017-Oct-10 02:00S 05°21' E 011°25'1 2.1
2017-Oct-10 01:29S 05°19' E 011°25'1 1.4
2017-Oct-10 00:34S 05°21' E 011°26'0 2.9
2017-Oct-10 00:28S 05°20' E 011°25'1 2.9
2017-Oct-09 23:59S 05°19' E 011°25'2 1.6
2017-Oct-09 22:55S 05°21' E 011°25'1 1.4
2017-Oct-09 22:29S 05°20' E 011°25'0 0.7
2017-Oct-09 21:47S 05°20' E 011°25'1 1.9
2017-Oct-09 21:28S 05°21' E 011°25'2 3.8
2017-Oct-09 20:59S 05°19' E 011°24'1 1.9
2017-Oct-09 20:26S 05°20' E 011°25'1 1.9
2017-Oct-09 20:00S 05°21' E 011°25'1 2.2
2017-Oct-09 19:30S 05°20' E 011°25'0 0.6
2017-Oct-09 19:00S 05°20' E 011°25'1 0.9
2017-Oct-09 18:18S 05°20' E 011°25'1 3.7
2017-Oct-09 18:00S 05°19' E 011°25'3 6.4
2017-Oct-09 17:30S 05°17' E 011°23'0 0.7
2017-Oct-09 17:00S 05°17' E 011°23'0 0.2
2017-Oct-09 16:30S 05°17' E 011°23'0 0.4
2017-Oct-09 16:00S 05°17' E 011°23'714.1
2017-Oct-09 15:29S 05°13' E 011°29'2 0.2
2017-Oct-09 04:44S 05°15' E 011°29'417.3
2017-Oct-09 04:30S 05°17' E 011°26'3 5.6
2017-Oct-09 03:58S 05°20' E 011°25'0 0.5
2017-Oct-09 03:29S 05°20' E 011°25'0 0.7
2017-Oct-09 03:00S 05°20' E 011°25'1 1.9
2017-Oct-09 02:30S 05°21' E 011°25'1 1.5
2017-Oct-09 02:00S 05°20' E 011°25'1 1.3
2017-Oct-09 01:24S 05°19' E 011°25'1 1.4
2017-Oct-09 01:00S 05°20' E 011°25'1 1.5
2017-Oct-09 00:29S 05°21' E 011°25'1 1.5
2017-Oct-08 23:32S 05°20' E 011°24'0 2.3
2017-Oct-08 23:25S 05°19' E 011°24'1 1.6
2017-Oct-08 22:50S 05°20' E 011°25'1 1.6
2017-Oct-08 22:30S 05°21' E 011°25'1 2.2
2017-Oct-08 21:59S 05°20' E 011°25'1 1.7
2017-Oct-08 21:29S 05°20' E 011°25'1 1.4
2017-Oct-08 20:58S 05°20' E 011°25'1 1.7
2017-Oct-08 20:30S 05°20' E 011°25'1 2.2
2017-Oct-08 20:00S 05°19' E 011°24'1 1.8
2017-Oct-08 19:26S 05°20' E 011°25'1 1.8
2017-Oct-08 18:59S 05°21' E 011°25'1 2.3
2017-Oct-08 18:22S 05°20' E 011°25'1 1.5
2017-Oct-08 17:52S 05°20' E 011°25'0 0.4
2017-Oct-08 17:23S 05°20' E 011°25'1 3.1
2017-Oct-08 17:00S 05°19' E 011°25'0 1.0
2017-Oct-08 16:30S 05°20' E 011°25'4 0.8
2017-Oct-08 11:46S 05°23' E 011°27'310.4
2017-Oct-08 11:28S 05°21' E 011°25'1 2.6
2017-Oct-08 11:00S 05°20' E 011°24'1 1.7
2017-Oct-08 10:23S 05°20' E 011°25'1 1.4
2017-Oct-08 09:52S 05°21' E 011°25'2 4.1
2017-Oct-08 09:29S 05°20' E 011°25'1 1.1
2017-Oct-08 08:19S 05°21' E 011°25'2 4.8
2017-Oct-08 07:59S 05°19' E 011°25'2 4.8
2017-Oct-08 07:30S 05°17' E 011°24'1 1.4
2017-Oct-08 07:00S 05°17' E 011°23'0 0.2
2017-Oct-08 06:30S 05°17' E 011°23'0 0.7
2017-Oct-08 06:00S 05°17' E 011°23'3 6.1
2017-Oct-08 05:30S 05°19' E 011°25'1 2.1
2017-Oct-08 04:57S 05°20' E 011°25'1 1.6
2017-Oct-08 04:30S 05°21' E 011°26'1 1.8
2017-Oct-08 03:59S 05°20' E 011°25'0 0.6
2017-Oct-08 03:19S 05°20' E 011°25'1 1.7
2017-Oct-08 02:56S 05°21' E 011°26'2 3.1
2017-Oct-08 02:20S 05°19' E 011°25'2 1.5
2017-Oct-08 01:10S 05°21' E 011°26'1 2.0
2017-Oct-08 00:49S 05°20' E 011°25'1 2.9
2017-Oct-08 00:30S 05°20' E 011°24'0 0.1
2017-Oct-07 23:56S 05°20' E 011°24'1 1.7
2017-Oct-07 23:30S 05°20' E 011°25'1 1.7
2017-Oct-07 22:59S 05°21' E 011°25'3 3.1
2017-Oct-07 21:52S 05°23' E 011°28'0 0.3
2017-Oct-07 20:39S 05°23' E 011°28'2 5.7
2017-Oct-07 20:17S 05°22' E 011°26'310.4
2017-Oct-07 20:00S 05°19' E 011°24'0 0.7
2017-Oct-07 19:30S 05°20' E 011°25'1 2.0
2017-Oct-07 18:59S 05°20' E 011°25'0 0.5
2017-Oct-07 18:17S 05°20' E 011°25'1 3.4
2017-Oct-07 18:00S 05°19' E 011°24'1 2.0
2017-Oct-07 17:24S 05°20' E 011°25'2 5.1
2017-Oct-07 17:00S 05°19' E 011°27'4 0.5
2017-Oct-07 08:09S 05°16' E 011°29'216.4
2017-Oct-07 08:00S 05°18' E 011°28'5 6.3
2017-Oct-07 07:14S 05°23' E 011°27'0 0.0
2017-Oct-07 06:51S 05°23' E 011°27'0 0.0
2017-Oct-07 06:30S 05°23' E 011°27'0 0.2
2017-Oct-07 05:59S 05°23' E 011°27'1 2.2
2017-Oct-07 05:29S 05°22' E 011°26'2 3.5
2017-Oct-07 04:59S 05°20' E 011°25'1 1.6
2017-Oct-07 04:30S 05°21' E 011°25'1 1.2
2017-Oct-07 04:00S 05°20' E 011°25'1 1.5
2017-Oct-07 03:30S 05°20' E 011°25'0 0.7
2017-Oct-07 03:00S 05°20' E 011°25'1 2.2
2017-Oct-07 02:30S 05°21' E 011°25'0 0.1
2017-Oct-07 02:00S 05°21' E 011°25'1 1.1
2017-Oct-07 01:30S 05°20' E 011°25'0 1.0
2017-Oct-07 01:00S 05°20' E 011°25'0 0.1
2017-Oct-07 00:29S 05°20' E 011°25'0 0.8
2017-Oct-06 23:59S 05°20' E 011°25'0 0.9
2017-Oct-06 23:30S 05°20' E 011°25'0 0.8
2017-Oct-06 22:58S 05°19' E 011°24'1 1.6
2017-Oct-06 22:30S 05°20' E 011°25'1 2.0
2017-Oct-06 21:58S 05°21' E 011°25'2 3.5
2017-Oct-06 21:29S 05°20' E 011°24'0 0.4
2017-Oct-06 20:58S 05°20' E 011°24'1 2.0
2017-Oct-06 20:30S 05°20' E 011°25'1 2.9
2017-Oct-06 20:00S 05°19' E 011°24'1 2.1
2017-Oct-06 19:30S 05°20' E 011°25'1 1.8
2017-Oct-06 18:58S 05°21' E 011°25'1 2.0
2017-Oct-06 18:30S 05°20' E 011°25'0 0.3
2017-Oct-06 18:00S 05°20' E 011°25'4 6.5
2017-Oct-06 17:27S 05°17' E 011°23'0 1.0
2017-Oct-06 17:00S 05°17' E 011°23'0 0.1
2017-Oct-06 16:30S 05°17' E 011°23'0 0.2
2017-Oct-06 16:00S 05°17' E 011°23'0 0.9
2017-Oct-06 15:30S 05°17' E 011°23'4 7.5
2017-Oct-06 15:00S 05°20' E 011°24'0 0.3
2017-Oct-06 14:30S 05°20' E 011°24'1 1.1
2017-Oct-06 14:00S 05°21' E 011°24'1 2.3
2017-Oct-06 13:30S 05°20' E 011°24'1 2.0
2017-Oct-06 12:47S 05°21' E 011°25'0 0.2
2017-Oct-06 12:17S 05°21' E 011°25'  

Dump ship's entire track history